sensor_id;sensor_type;location;lat;lon;timestamp;pressure;altitude;pressure_sealevel;temperature;humidity
49102;BME280;34913;47.520;19.186;2023-02-13T00:02:13;102048.16;;;-0.78;84.26
49102;BME280;34913;47.520;19.186;2023-02-13T00:04:39;102049.88;;;-0.83;84.30
49102;BME280;34913;47.520;19.186;2023-02-13T00:07:07;102053.38;;;-0.92;85.18
49102;BME280;34913;47.520;19.186;2023-02-13T00:09:32;102050.75;;;-0.89;85.41
49102;BME280;34913;47.520;19.186;2023-02-13T00:11:58;102056.84;;;-0.84;84.87
49102;BME280;34913;47.520;19.186;2023-02-13T00:14:23;102061.19;;;-0.91;84.95
49102;BME280;34913;47.520;19.186;2023-02-13T00:16:49;102058.59;;;-0.98;85.45
49102;BME280;34913;47.520;19.186;2023-02-13T00:19:14;102065.56;;;-1.06;85.61
49102;BME280;34913;47.520;19.186;2023-02-13T00:21:40;102063.84;;;-1.07;86.27
49102;BME280;34913;47.520;19.186;2023-02-13T00:24:06;102062.13;;;-1.15;86.10
49102;BME280;34913;47.520;19.186;2023-02-13T00:26:31;102063.84;;;-1.07;86.17
49102;BME280;34913;47.520;19.186;2023-02-13T00:28:57;102061.25;;;-1.09;85.88
49102;BME280;34913;47.520;19.186;2023-02-13T00:31:22;102073.41;;;-1.09;85.74
49102;BME280;34913;47.520;19.186;2023-02-13T00:33:48;102070.81;;;-1.25;86.18
49102;BME280;34913;47.520;19.186;2023-02-13T00:36:19;102067.31;;;-1.27;87.15
49102;BME280;34913;47.520;19.186;2023-02-13T00:38:46;102071.66;;;-1.15;87.16
49102;BME280;34913;47.520;19.186;2023-02-13T00:41:12;102057.78;;;-1.25;86.41
49102;BME280;34913;47.520;19.186;2023-02-13T00:43:38;102050.84;;;-1.29;86.75
49102;BME280;34913;47.520;19.186;2023-02-13T00:46:04;102064.75;;;-1.37;86.75
49102;BME280;34913;47.520;19.186;2023-02-13T00:48:31;102057.78;;;-1.43;87.85
49102;BME280;34913;47.520;19.186;2023-02-13T00:50:57;102053.44;;;-1.43;87.61
49102;BME280;34913;47.520;19.186;2023-02-13T00:53:24;102046.50;;;-1.39;87.59
49102;BME280;34913;47.520;19.186;2023-02-13T00:55:50;102043.03;;;-1.33;87.28
49102;BME280;34913;47.520;19.186;2023-02-13T00:58:16;102040.44;;;-1.44;86.88
49102;BME280;34913;47.520;19.186;2023-02-13T01:00:42;102043.06;;;-1.49;86.85
49102;BME280;34913;47.520;19.186;2023-02-13T01:03:08;102037.81;;;-1.52;86.90
49102;BME280;34913;47.520;19.186;2023-02-13T01:05:34;102039.56;;;-1.48;86.74
49102;BME280;34913;47.520;19.186;2023-02-13T01:08:00;102045.66;;;-1.58;87.73
49102;BME280;34913;47.520;19.186;2023-02-13T01:10:25;102049.09;;;-1.51;87.81
49102;BME280;34913;47.520;19.186;2023-02-13T01:12:51;102049.09;;;-1.51;87.57
49102;BME280;34913;47.520;19.186;2023-02-13T01:15:17;102048.25;;;-1.47;87.68
49102;BME280;34913;47.520;19.186;2023-02-13T01:17:43;102045.66;;;-1.49;87.82
49102;BME280;34913;47.520;19.186;2023-02-13T01:20:11;102046.50;;;-1.62;88.09
49102;BME280;34913;47.520;19.186;2023-02-13T01:22:37;102037.84;;;-1.72;89.80
49102;BME280;34913;47.520;19.186;2023-02-13T01:25:03;102030.91;;;-1.65;90.23
49102;BME280;34913;47.520;19.186;2023-02-13T01:27:28;102022.19;;;-1.67;88.69
49102;BME280;34913;47.520;19.186;2023-02-13T01:29:54;102037.84;;;-1.70;89.05
49102;BME280;34913;47.520;19.186;2023-02-13T01:32:20;102040.41;;;-1.84;89.03
49102;BME280;34913;47.520;19.186;2023-02-13T01:34:45;102034.34;;;-1.80;89.38
49102;BME280;34913;47.520;19.186;2023-02-13T01:37:11;102036.97;;;-1.71;89.22
49102;BME280;34913;47.520;19.186;2023-02-13T01:39:37;102044.78;;;-1.63;89.20
49102;BME280;34913;47.520;19.186;2023-02-13T01:42:03;102037.84;;;-1.65;87.84
49102;BME280;34913;47.520;19.186;2023-02-13T01:47:09;102043.03;;;-1.72;89.05
49102;BME280;34913;47.520;19.186;2023-02-13T01:49:37;102035.22;;;-1.76;89.88
49102;BME280;34913;47.520;19.186;2023-02-13T01:52:04;102037.84;;;-1.70;89.89
49102;BME280;34913;47.520;19.186;2023-02-13T01:54:31;102032.59;;;-1.84;88.73
49102;BME280;34913;47.520;19.186;2023-02-13T01:57:02;102031.75;;;-1.80;89.16
49102;BME280;34913;47.520;19.186;2023-02-13T01:59:33;102039.56;;;-1.80;89.83
49102;BME280;34913;47.520;19.186;2023-02-13T02:02:02;102031.75;;;-1.86;89.57
49102;BME280;34913;47.520;19.186;2023-02-13T02:04:31;102030.03;;;-1.81;89.60
49102;BME280;34913;47.520;19.186;2023-02-13T02:07:03;102030.00;;;-1.75;89.04
49102;BME280;34913;47.520;19.186;2023-02-13T02:09:34;102033.50;;;-1.77;87.96
49102;BME280;34913;47.520;19.186;2023-02-13T02:14:33;102030.88;;;-1.76;88.69
49102;BME280;34913;47.520;19.186;2023-02-13T02:16:59;102034.34;;;-1.89;87.51
49102;BME280;34913;47.520;19.186;2023-02-13T02:47:26;102023.94;;;-1.87;86.14
49102;BME280;34913;47.520;19.186;2023-02-13T02:52:59;102024.78;;;-1.91;86.14
49102;BME280;34913;47.520;19.186;2023-02-13T02:55:38;102025.69;;;-1.88;86.05
49102;BME280;34913;47.520;19.186;2023-02-13T02:58:12;102018.72;;;-1.86;86.12
49102;BME280;34913;47.520;19.186;2023-02-13T03:00:59;102015.25;;;-1.86;85.82
49102;BME280;34913;47.520;19.186;2023-02-13T03:03:46;102018.75;;;-1.89;85.59
49102;BME280;34913;47.520;19.186;2023-02-13T03:06:49;102014.41;;;-1.85;86.84
49102;BME280;34913;47.520;19.186;2023-02-13T03:09:24;102011.78;;;-1.84;86.54
49102;BME280;34913;47.520;19.186;2023-02-13T03:12:11;102009.19;;;-1.91;86.11
49102;BME280;34913;47.520;19.186;2023-02-13T03:14:59;102017.88;;;-1.97;86.31
49102;BME280;34913;47.520;19.186;2023-02-13T03:17:26;102021.31;;;-2.00;86.73
49102;BME280;34913;47.520;19.186;2023-02-13T03:20:14;102023.94;;;-1.95;86.91
49102;BME280;34913;47.520;19.186;2023-02-13T03:29:27;102029.13;;;-2.00;86.33
49102;BME280;34913;47.520;19.186;2023-02-13T03:35:46;102016.13;;;-1.97;85.74
49102;BME280;34913;47.520;19.186;2023-02-13T03:38:16;102009.19;;;-1.93;85.66
49102;BME280;34913;47.520;19.186;2023-02-13T03:40:48;102008.31;;;-1.90;85.57
49102;BME280;34913;47.520;19.186;2023-02-13T03:44:08;102014.38;;;-1.91;84.77
49102;BME280;34913;47.520;19.186;2023-02-13T03:46:39;102011.78;;;-1.91;85.16
49102;BME280;34913;47.520;19.186;2023-02-13T03:49:12;102009.16;;;-1.90;84.56
49102;BME280;34913;47.520;19.186;2023-02-13T03:52:08;102012.66;;;-1.97;83.01
49102;BME280;34913;47.520;19.186;2023-02-13T03:54:48;102016.09;;;-2.18;83.70
49102;BME280;34913;47.520;19.186;2023-02-13T03:57:35;102009.16;;;-2.20;85.19
49102;BME280;34913;47.520;19.186;2023-02-13T04:00:20;102002.16;;;-2.40;84.64
49102;BME280;34913;47.520;19.186;2023-02-13T04:05:24;102010.78;;;-2.53;85.75
49102;BME280;34913;47.520;19.186;2023-02-13T04:07:52;102013.38;;;-2.61;85.37
49102;BME280;34913;47.520;19.186;2023-02-13T04:10:18;102029.84;;;-2.59;86.20
49102;BME280;34913;47.520;19.186;2023-02-13T04:12:59;102021.19;;;-2.48;85.84
49102;BME280;34913;47.520;19.186;2023-02-13T04:15:49;102020.31;;;-2.57;85.03
49102;BME280;34913;47.520;19.186;2023-02-13T04:18:22;102017.69;;;-2.64;86.00
49102;BME280;34913;47.520;19.186;2023-02-13T04:20:48;102016.84;;;-2.59;86.94
49102;BME280;34913;47.520;19.186;2023-02-13T04:23:14;102017.72;;;-2.58;86.13
49102;BME280;34913;47.520;19.186;2023-02-13T04:25:43;102014.22;;;-2.63;86.14
49102;BME280;34913;47.520;19.186;2023-02-13T04:28:09;102004.72;;;-2.58;86.32
49102;BME280;34913;47.520;19.186;2023-02-13T04:30:34;102006.44;;;-2.54;85.84
49102;BME280;34913;47.520;19.186;2023-02-13T04:33:00;102000.34;;;-2.65;84.69
49102;BME280;34913;47.520;19.186;2023-02-13T04:35:25;102002.03;;;-2.69;85.03
49102;BME280;34913;47.520;19.186;2023-02-13T04:37:51;101999.44;;;-2.69;85.32
49102;BME280;34913;47.520;19.186;2023-02-13T04:40:17;102007.22;;;-2.79;85.66
49102;BME280;34913;47.520;19.186;2023-02-13T04:42:42;102003.75;;;-2.82;85.80
49102;BME280;34913;47.520;19.186;2023-02-13T04:45:08;102002.00;;;-2.78;86.08
49102;BME280;34913;47.520;19.186;2023-02-13T04:47:35;102002.91;;;-2.70;85.60
49102;BME280;34913;47.520;19.186;2023-02-13T04:50:00;102001.19;;;-2.75;85.09
49102;BME280;34913;47.520;19.186;2023-02-13T04:52:25;102006.34;;;-2.77;85.82
49102;BME280;34913;47.520;19.186;2023-02-13T04:54:51;101993.38;;;-2.72;86.13
49102;BME280;34913;47.520;19.186;2023-02-13T04:57:16;101990.78;;;-2.71;86.36
49102;BME280;34913;47.520;19.186;2023-02-13T04:59:42;101986.41;;;-2.79;86.52
49102;BME280;34913;47.520;19.186;2023-02-13T05:02:07;101982.97;;;-2.80;85.81
49102;BME280;34913;47.520;19.186;2023-02-13T05:04:33;101982.94;;;-2.89;85.61
49102;BME280;34913;47.520;19.186;2023-02-13T05:06:58;101994.97;;;-3.02;86.14
49102;BME280;34913;47.520;19.186;2023-02-13T05:09:24;101990.66;;;-3.06;86.84
49102;BME280;34913;47.520;19.186;2023-02-13T05:11:51;101984.63;;;-2.99;87.11
49102;BME280;34913;47.520;19.186;2023-02-13T05:14:17;101980.28;;;-2.95;87.66
49102;BME280;34913;47.520;19.186;2023-02-13T05:16:42;101981.19;;;-2.90;87.96
49102;BME280;34913;47.520;19.186;2023-02-13T05:19:07;101972.53;;;-2.86;87.59
49102;BME280;34913;47.520;19.186;2023-02-13T05:21:33;101975.13;;;-2.91;88.24
49102;BME280;34913;47.520;19.186;2023-02-13T05:24:17;101979.47;;;-2.90;87.38
49102;BME280;34913;47.520;19.186;2023-02-13T05:26:42;101970.75;;;-2.96;87.54
49102;BME280;34913;47.520;19.186;2023-02-13T05:29:09;101970.81;;;-2.89;87.91
49102;BME280;34913;47.520;19.186;2023-02-13T05:31:45;101962.13;;;-2.86;87.00
49102;BME280;34913;47.520;19.186;2023-02-13T05:34:11;101972.50;;;-2.94;86.30
49102;BME280;34913;47.520;19.186;2023-02-13T05:36:36;101970.75;;;-2.98;86.38
49102;BME280;34913;47.520;19.186;2023-02-13T05:39:02;101971.59;;;-3.06;86.82
49102;BME280;34913;47.520;19.186;2023-02-13T05:41:28;101973.25;;;-3.22;87.23
49102;BME280;34913;47.520;19.186;2023-02-13T05:43:53;101976.66;;;-3.25;88.61
49102;BME280;34913;47.520;19.186;2023-02-13T05:46:19;101988.81;;;-3.21;89.25
49102;BME280;34913;47.520;19.186;2023-02-13T05:48:44;101996.59;;;-3.24;89.19
49102;BME280;34913;47.520;19.186;2023-02-13T05:51:10;101989.66;;;-3.26;90.37
49102;BME280;34913;47.520;19.186;2023-02-13T05:53:35;101990.56;;;-3.23;90.93
49102;BME280;34913;47.520;19.186;2023-02-13T05:56:03;102002.72;;;-3.14;90.56
49102;BME280;34913;47.520;19.186;2023-02-13T05:58:29;101993.25;;;-3.03;89.97
49102;BME280;34913;47.520;19.186;2023-02-13T06:00:56;101988.13;;;-2.89;90.49
49102;BME280;34913;47.520;19.186;2023-02-13T06:03:23;101999.41;;;-2.83;89.72
49102;BME280;34913;47.520;19.186;2023-02-13T06:05:49;101998.50;;;-2.86;88.98
49102;BME280;34913;47.520;19.186;2023-02-13T06:08:14;102000.25;;;-2.91;89.84
49102;BME280;34913;47.520;19.186;2023-02-13T06:10:39;102017.66;;;-2.75;90.72
49102;BME280;34913;47.520;19.186;2023-02-13T06:13:05;102022.88;;;-2.67;91.09
49102;BME280;34913;47.520;19.186;2023-02-13T06:15:30;102023.78;;;-2.53;91.62
49102;BME280;34913;47.520;19.186;2023-02-13T06:17:56;102033.38;;;-2.43;91.54
49102;BME280;34913;47.520;19.186;2023-02-13T06:20:22;102026.41;;;-2.38;91.02
49102;BME280;34913;47.520;19.186;2023-02-13T06:22:51;102031.66;;;-2.30;89.84
49102;BME280;34913;47.520;19.186;2023-02-13T06:25:17;102033.41;;;-2.25;89.81
49102;BME280;34913;47.520;19.186;2023-02-13T06:27:42;102034.31;;;-2.21;89.65
49102;BME280;34913;47.520;19.186;2023-02-13T06:30:08;102030.84;;;-2.12;89.22
49102;BME280;34913;47.520;19.186;2023-02-13T06:32:33;102033.44;;;-2.08;89.08
49102;BME280;34913;47.520;19.186;2023-02-13T06:34:59;102034.31;;;-2.03;88.95
49102;BME280;34913;47.520;19.186;2023-02-13T06:37:24;102025.66;;;-2.00;88.41
49102;BME280;34913;47.520;19.186;2023-02-13T06:39:50;102018.69;;;-1.98;88.33
49102;BME280;34913;47.520;19.186;2023-02-13T06:42:15;102028.25;;;-1.92;88.43
49102;BME280;34913;47.520;19.186;2023-02-13T06:44:42;102034.31;;;-2.12;87.96
49102;BME280;34913;47.520;19.186;2023-02-13T06:47:08;102032.59;;;-2.11;89.57
49102;BME280;34913;47.520;19.186;2023-02-13T06:49:33;102027.38;;;-2.02;89.64
49102;BME280;34913;47.520;19.186;2023-02-13T06:51:59;102027.41;;;-1.91;89.71
49102;BME280;34913;47.520;19.186;2023-02-13T06:54:24;102032.59;;;-1.82;89.28
49102;BME280;34913;47.520;19.186;2023-02-13T06:56:49;102035.25;;;-1.73;89.16
49102;BME280;34913;47.520;19.186;2023-02-13T06:59:15;102034.38;;;-1.63;88.63
49102;BME280;34913;47.520;19.186;2023-02-13T07:01:40;102030.03;;;-1.55;88.61
49102;BME280;34913;47.520;19.186;2023-02-13T07:04:06;102029.16;;;-1.46;88.88
49102;BME280;34913;47.520;19.186;2023-02-13T07:06:31;102037.81;;;-1.36;88.64
49102;BME280;34913;47.520;19.186;2023-02-13T07:08:56;102022.22;;;-1.39;87.60
49102;BME280;34913;47.520;19.186;2023-02-13T07:11:23;102035.22;;;-1.24;87.84
49102;BME280;34913;47.520;19.186;2023-02-13T07:13:49;102037.78;;;-1.14;87.82
49102;BME280;34913;47.520;19.186;2023-02-13T07:16:14;102040.38;;;-1.01;87.87
49102;BME280;34913;47.520;19.186;2023-02-13T07:18:40;102045.53;;;-0.88;87.46
49102;BME280;34913;47.520;19.186;2023-02-13T07:21:06;102041.19;;;-0.76;86.53
49102;BME280;34913;47.520;19.186;2023-02-13T07:23:32;102044.63;;;-0.62;85.65
49102;BME280;34913;47.520;19.186;2023-02-13T07:25:59;102047.16;;;-0.50;84.39
49102;BME280;34913;47.520;19.186;2023-02-13T07:28:25;102041.00;;;-0.40;84.03
49102;BME280;34913;47.520;19.186;2023-02-13T07:30:51;102040.97;;;-0.29;83.18
49102;BME280;34913;47.520;19.186;2023-02-13T07:33:17;102044.31;;;-0.04;82.26
49102;BME280;34913;47.520;19.186;2023-02-13T07:35:47;102040.75;;;0.06;81.75
49102;BME280;34913;47.520;19.186;2023-02-13T07:38:13;102038.97;;;0.17;80.77
49102;BME280;34913;47.520;19.186;2023-02-13T07:40:39;102049.34;;;0.26;80.29
49102;BME280;34913;47.520;19.186;2023-02-13T07:43:04;102060.53;;;0.39;79.70
49102;BME280;34913;47.520;19.186;2023-02-13T07:45:30;102062.19;;;0.51;78.59
49102;BME280;34913;47.520;19.186;2023-02-13T07:47:56;102056.81;;;0.69;77.33
49102;BME280;34913;47.520;19.186;2023-02-13T07:50:22;102061.91;;;0.83;76.70
49102;BME280;34913;47.520;19.186;2023-02-13T07:52:57;102066.16;;;0.95;76.38
49102;BME280;34913;47.520;19.186;2023-02-13T07:55:22;102063.44;;;1.07;76.07
49102;BME280;34913;47.520;19.186;2023-02-13T07:57:48;102061.50;;;1.24;75.67
49102;BME280;34913;47.520;19.186;2023-02-13T08:00:15;102059.59;;;1.38;75.40
49102;BME280;34913;47.520;19.186;2023-02-13T08:02:40;102057.59;;;1.57;74.63
49102;BME280;34913;47.520;19.186;2023-02-13T08:05:06;102056.50;;;1.77;73.51
49102;BME280;34913;47.520;19.186;2023-02-13T08:07:32;102055.56;;;1.81;71.88
49102;BME280;34913;47.520;19.186;2023-02-13T08:09:58;102057.34;;;1.79;71.19
49102;BME280;34913;47.520;19.186;2023-02-13T08:12:42;102055.31;;;1.99;71.16
49102;BME280;34913;47.520;19.186;2023-02-13T08:15:10;102046.50;;;2.05;69.90
49102;BME280;34913;47.520;19.186;2023-02-13T08:17:36;102047.50;;;1.98;69.85
49102;BME280;34913;47.520;19.186;2023-02-13T08:20:02;102043.97;;;2.00;69.98
49102;BME280;34913;47.520;19.186;2023-02-13T08:22:27;102037.63;;;2.15;69.91
49102;BME280;34913;47.520;19.186;2023-02-13T08:24:53;102053.16;;;2.26;68.14
49102;BME280;34913;47.520;19.186;2023-02-13T08:27:18;102047.81;;;2.33;67.54
49102;BME280;34913;47.520;19.186;2023-02-13T08:29:44;102043.34;;;2.40;67.33
49102;BME280;34913;47.520;19.186;2023-02-13T08:32:09;102038.06;;;2.41;66.90
49102;BME280;34913;47.520;19.186;2023-02-13T08:34:35;102040.38;;;2.61;68.39
49102;BME280;34913;47.520;19.186;2023-02-13T08:37:01;102040.66;;;2.94;67.00
49102;BME280;34913;47.520;19.186;2023-02-13T08:39:26;102042.22;;;3.04;65.21
49102;BME280;34913;47.520;19.186;2023-02-13T08:41:52;102041.34;;;3.03;65.40
49102;BME280;34913;47.520;19.186;2023-02-13T08:44:17;102039.41;;;3.13;65.89
49102;BME280;34913;47.520;19.186;2023-02-13T08:46:43;102039.50;;;3.10;65.01
49102;BME280;34913;47.520;19.186;2023-02-13T08:49:08;102036.81;;;3.12;65.16
49102;BME280;34913;47.520;19.186;2023-02-13T08:51:34;102030.97;;;3.42;65.23
49102;BME280;34913;47.520;19.186;2023-02-13T08:53:59;102041.50;;;3.82;63.81
49102;BME280;34913;47.520;19.186;2023-02-13T08:56:24;102033.41;;;3.91;62.77
49102;BME280;34913;47.520;19.186;2023-02-13T08:58:50;102035.34;;;4.22;62.10
49102;BME280;34913;47.520;19.186;2023-02-13T09:01:16;102034.06;;;4.38;61.17
49102;BME280;34913;47.520;19.186;2023-02-13T09:03:41;102033.06;;;4.44;61.52
49102;BME280;34913;47.520;19.186;2023-02-13T09:06:07;102040.56;;;4.59;61.59
49102;BME280;34913;47.520;19.186;2023-02-13T09:08:34;102033.34;;;4.66;61.44
49102;BME280;34913;47.520;19.186;2023-02-13T09:11:01;102041.72;;;4.82;61.43
49102;BME280;34913;47.520;19.186;2023-02-13T09:13:28;102038.56;;;5.01;60.88
49102;BME280;34913;47.520;19.186;2023-02-13T09:15:57;102036.25;;;4.91;61.45
49102;BME280;34913;47.520;19.186;2023-02-13T09:18:23;102023.75;;;4.97;61.04
49102;BME280;34913;47.520;19.186;2023-02-13T09:20:48;102037.16;;;5.21;60.79
49102;BME280;34913;47.520;19.186;2023-02-13T09:23:14;102028.03;;;5.01;61.57
49102;BME280;34913;47.520;19.186;2023-02-13T09:25:39;102037.59;;;5.06;60.89
49102;BME280;34913;47.520;19.186;2023-02-13T09:28:05;102033.88;;;5.13;60.67
49102;BME280;34913;47.520;19.186;2023-02-13T09:30:30;102034.88;;;5.40;60.21
49102;BME280;34913;47.520;19.186;2023-02-13T09:32:55;102038.16;;;6.07;58.33
49102;BME280;34913;47.520;19.186;2023-02-13T09:35:21;102032.50;;;6.46;56.89
49102;BME280;34913;47.520;19.186;2023-02-13T09:37:47;102031.91;;;6.37;56.98
49102;BME280;34913;47.520;19.186;2023-02-13T09:40:29;102026.88;;;6.30;57.27
49102;BME280;34913;47.520;19.186;2023-02-13T09:43:06;102023.19;;;6.07;58.37
49102;BME280;34913;47.520;19.186;2023-02-13T09:45:33;102019.06;;;5.99;59.08
49102;BME280;34913;47.520;19.186;2023-02-13T09:47:58;102019.50;;;5.83;58.69
49102;BME280;34913;47.520;19.186;2023-02-13T09:50:28;102025.75;;;6.10;58.65
49102;BME280;34913;47.520;19.186;2023-02-13T09:52:56;102021.03;;;6.20;57.97
49102;BME280;34913;47.520;19.186;2023-02-13T09:55:29;102017.91;;;6.09;58.60
49102;BME280;34913;47.520;19.186;2023-02-13T09:58:08;102014.06;;;6.19;57.89
49102;BME280;34913;47.520;19.186;2023-02-13T10:00:45;102015.81;;;6.19;58.42
49102;BME280;34913;47.520;19.186;2023-02-13T10:14:10;102001.41;;;6.02;59.04
49102;BME280;34913;47.520;19.186;2023-02-13T10:16:44;102002.47;;;5.97;58.86
49102;BME280;34913;47.520;19.186;2023-02-13T10:21:50;101989.91;;;6.31;58.32
49102;BME280;34913;47.520;19.186;2023-02-13T10:24:47;101990.47;;;6.14;58.42
49102;BME280;34913;47.520;19.186;2023-02-13T10:27:52;101988.03;;;6.08;59.33
49102;BME280;34913;47.520;19.186;2023-02-13T10:30:22;101982.00;;;6.31;59.12
49102;BME280;34913;47.520;19.186;2023-02-13T10:33:10;101981.22;;;6.54;58.30
49102;BME280;34913;47.520;19.186;2023-02-13T10:38:34;101976.38;;;6.67;57.70
49102;BME280;34913;47.520;19.186;2023-02-13T10:41:22;101979.56;;;7.25;56.39
49102;BME280;34913;47.520;19.186;2023-02-13T10:44:59;101978.34;;;7.34;55.16
49102;BME280;34913;47.520;19.186;2023-02-13T10:52:32;101966.00;;;7.11;54.13
49102;BME280;34913;47.520;19.186;2023-02-13T11:00:51;101957.19;;;7.12;54.34
49102;BME280;34913;47.520;19.186;2023-02-13T11:03:25;101943.06;;;7.13;54.61
49102;BME280;34913;47.520;19.186;2023-02-13T11:05:51;101943.50;;;7.24;54.65
49102;BME280;34913;47.520;19.186;2023-02-13T11:10:42;101937.50;;;7.44;53.87
49102;BME280;34913;47.520;19.186;2023-02-13T11:13:23;101930.63;;;7.62;53.78
49102;BME280;34913;47.520;19.186;2023-02-13T11:18:34;101925.81;;;8.15;51.55
49102;BME280;34913;47.520;19.186;2023-02-13T11:21:06;101924.66;;;8.21;51.58
49102;BME280;34913;47.520;19.186;2023-02-13T11:23:37;101916.13;;;8.36;52.06
49102;BME280;34913;47.520;19.186;2023-02-13T11:26:03;101909.69;;;8.82;50.58
49102;BME280;34913;47.520;19.186;2023-02-13T11:28:36;101908.47;;;8.28;51.18
49102;BME280;34913;47.520;19.186;2023-02-13T11:31:24;101915.09;;;7.96;52.69
49102;BME280;34913;47.520;19.186;2023-02-13T11:33:51;101904.34;;;8.43;51.87
49102;BME280;34913;47.520;19.186;2023-02-13T11:39:05;101893.63;;;8.66;51.86
49102;BME280;34913;47.520;19.186;2023-02-13T11:41:38;101889.81;;;8.53;50.94
49102;BME280;34913;47.520;19.186;2023-02-13T11:44:04;101889.94;;;8.50;52.80
49102;BME280;34913;47.520;19.186;2023-02-13T11:46:47;101886.00;;;8.98;51.20
49102;BME280;34913;47.520;19.186;2023-02-13T11:49:24;101882.53;;;9.16;50.63
49102;BME280;34913;47.520;19.186;2023-02-13T11:51:56;101881.28;;;9.42;49.93
49102;BME280;34913;47.520;19.186;2023-02-13T11:59:25;101878.56;;;9.80;48.24
49102;BME280;34913;47.520;19.186;2023-02-13T12:02:25;101884.66;;;9.99;48.06
49102;BME280;34913;47.520;19.186;2023-02-13T12:04:54;101878.50;;;9.99;48.50
49102;BME280;34913;47.520;19.186;2023-02-13T12:07:28;101866.09;;;9.99;48.20
49102;BME280;34913;47.520;19.186;2023-02-13T12:09:59;101875.94;;;9.97;47.87
49102;BME280;34913;47.520;19.186;2023-02-13T12:12:41;101869.50;;;9.67;48.92
49102;BME280;34913;47.520;19.186;2023-02-13T12:15:24;101874.31;;;9.40;49.73
49102;BME280;34913;47.520;19.186;2023-02-13T12:18:08;101867.63;;;9.69;48.92
49102;BME280;34913;47.520;19.186;2023-02-13T12:26:32;101856.13;;;10.04;48.20
49102;BME280;34913;47.520;19.186;2023-02-13T12:37:54;101840.34;;;9.67;49.13
49102;BME280;34913;47.520;19.186;2023-02-13T12:40:37;101840.72;;;9.76;48.88
49102;BME280;34913;47.520;19.186;2023-02-13T13:15:00;101799.41;;;9.90;49.09
49102;BME280;34913;47.520;19.186;2023-02-13T13:20:36;101796.03;;;9.69;49.97
49102;BME280;34913;47.520;19.186;2023-02-13T13:23:30;101797.34;;;9.60;49.82
49102;BME280;34913;47.520;19.186;2023-02-13T13:26:15;101795.19;;;8.96;51.82
49102;BME280;34913;47.520;19.186;2023-02-13T13:28:46;101786.59;;;9.10;52.08
49102;BME280;34913;47.520;19.186;2023-02-13T13:31:14;101787.06;;;9.18;51.66
49102;BME280;34913;47.520;19.186;2023-02-13T13:33:43;101786.38;;;9.32;51.48
49102;BME280;34913;47.520;19.186;2023-02-13T13:36:20;101776.72;;;9.31;50.77
49102;BME280;34913;47.520;19.186;2023-02-13T13:41:24;101778.38;;;9.33;51.98
49102;BME280;34913;47.520;19.186;2023-02-13T13:49:37;101771.97;;;9.37;52.32
49102;BME280;34913;47.520;19.186;2023-02-13T13:52:18;101771.22;;;9.35;52.12
49102;BME280;34913;47.520;19.186;2023-02-13T13:54:45;101771.63;;;9.09;53.25
49102;BME280;34913;47.520;19.186;2023-02-13T13:57:19;101768.91;;;9.10;52.91
49102;BME280;34913;47.520;19.186;2023-02-13T14:07:39;101768.94;;;9.28;52.89
49102;BME280;34913;47.520;19.186;2023-02-13T14:26:11;101784.38;;;8.82;56.15
49102;BME280;34913;47.520;19.186;2023-02-13T14:28:39;101788.81;;;8.81;56.48
49102;BME280;34913;47.520;19.186;2023-02-13T14:31:08;101776.22;;;8.86;56.18
49102;BME280;34913;47.520;19.186;2023-02-13T14:33:41;101787.53;;;8.71;56.99
49102;BME280;34913;47.520;19.186;2023-02-13T14:36:15;101778.16;;;8.64;57.29
49102;BME280;34913;47.520;19.186;2023-02-13T14:38:54;101776.00;;;8.33;58.72
49102;BME280;34913;47.520;19.186;2023-02-13T14:44:41;101782.34;;;8.29;59.56
49102;BME280;34913;47.520;19.186;2023-02-13T14:47:21;101780.75;;;8.06;60.54
49102;BME280;34913;47.520;19.186;2023-02-13T14:49:50;101784.75;;;8.15;60.76
49102;BME280;34913;47.520;19.186;2023-02-13T14:52:22;101785.66;;;8.13;61.00
49102;BME280;34913;47.520;19.186;2023-02-13T14:54:58;101778.47;;;8.17;60.32
49102;BME280;34913;47.520;19.186;2023-02-13T14:57:41;101770.22;;;8.04;60.47
49102;BME280;34913;47.520;19.186;2023-02-13T15:00:27;101776.63;;;7.78;61.07
49102;BME280;34913;47.520;19.186;2023-02-13T15:03:03;101778.41;;;7.78;61.19
49102;BME280;34913;47.520;19.186;2023-02-13T15:05:34;101776.09;;;7.70;61.46
49102;BME280;34913;47.520;19.186;2023-02-13T15:08:35;101769.81;;;7.52;61.78
49102;BME280;34913;47.520;19.186;2023-02-13T15:11:02;101776.13;;;7.48;61.66
49102;BME280;34913;47.520;19.186;2023-02-13T15:13:33;101781.94;;;7.36;62.57
49102;BME280;34913;47.520;19.186;2023-02-13T15:16:05;101790.09;;;7.30;62.86
49102;BME280;34913;47.520;19.186;2023-02-13T15:18:44;101789.03;;;7.34;62.89
49102;BME280;34913;47.520;19.186;2023-02-13T15:21:15;101802.19;;;7.14;63.32
49102;BME280;34913;47.520;19.186;2023-02-13T15:23:41;101799.84;;;7.06;63.71
49102;BME280;34913;47.520;19.186;2023-02-13T15:26:07;101803.19;;;7.11;64.02
49102;BME280;34913;47.520;19.186;2023-02-13T15:28:34;101796.72;;;6.96;64.37
49102;BME280;34913;47.520;19.186;2023-02-13T15:31:05;101805.59;;;6.94;64.62
49102;BME280;34913;47.520;19.186;2023-02-13T15:33:33;101801.44;;;6.88;65.02
49102;BME280;34913;47.520;19.186;2023-02-13T15:36:06;101790.31;;;7.02;64.47
49102;BME280;34913;47.520;19.186;2023-02-13T15:43:33;101790.47;;;6.76;65.54
49102;BME280;34913;47.520;19.186;2023-02-13T15:48:52;101787.47;;;6.85;65.80
49102;BME280;34913;47.520;19.186;2023-02-13T15:51:22;101786.25;;;6.93;65.24
49102;BME280;34913;47.520;19.186;2023-02-13T15:53:56;101782.09;;;7.10;64.80
49102;BME280;34913;47.520;19.186;2023-02-13T15:56:23;101779.19;;;6.94;65.45
49102;BME280;34913;47.520;19.186;2023-02-13T15:58:50;101782.75;;;6.93;65.36
49102;BME280;34913;47.520;19.186;2023-02-13T16:01:17;101782.25;;;6.83;65.58
49102;BME280;34913;47.520;19.186;2023-02-13T16:03:46;101780.25;;;6.90;65.78